OCN8HK LGMK-EDDM
Flight info
| Callsign | OCN8HK |
|---|---|
| Flight time | 2h 41m |
| Altitude | 38000 |
| Route | VARIX1V VARIX UL995 KEA UL52 KOR UL613 XANIS DCT DIMIS DCT VRANA DCT GORPA DCT RASTA DCT REDBU Q112 NAPSA NAPSA4A |
| Aircraft | A320/M-SDE2E3FGIJ1LORWXYZ/HB1 |
Departure
| Time | 2026-05-09 10:26 |
|---|---|
| Airport | Mykonos Island National Airport (LGMK) |
Arrival
| Time | 2026-05-09 13:07 |
|---|---|
| Airport | Munich Airport (EDDM) |
| Time | Latitude | Longitude | Altitude | Speed | Heading |
|---|---|---|---|---|---|
| 2026-05-09 09:50 | 37.43541 | 25.34622 | 407 ft | 0 kts | 250° |
| 2026-05-09 10:16 | 37.43540 | 25.34618 | 407 ft | 1 kts | 250° |
| 2026-05-09 10:17 | 37.43538 | 25.34611 | 405 ft | 1 kts | 250° |
| 2026-05-09 10:17 | 37.43539 | 25.34612 | 405 ft | 2 kts | 250° |
| 2026-05-09 10:17 | 37.43544 | 25.34632 | 407 ft | 2 kts | 250° |
| 2026-05-09 10:17 | 37.43550 | 25.34652 | 405 ft | 2 kts | 250° |
| 2026-05-09 10:18 | 37.43556 | 25.34672 | 404 ft | 2 kts | 269° |
| 2026-05-09 10:18 | 37.43551 | 25.34691 | 403 ft | 2 kts | 338° |
| 2026-05-09 10:18 | 37.43547 | 25.34693 | 403 ft | 0 kts | 339° |
| 2026-05-09 10:20 | 37.43572 | 25.34682 | 405 ft | 10 kts | 340° |
| 2026-05-09 10:20 | 37.43602 | 25.34669 | 408 ft | 0 kts | 348° |
| 2026-05-09 10:21 | 37.43616 | 25.34670 | 408 ft | 5 kts | 9° |
| 2026-05-09 10:22 | 37.43662 | 25.34707 | 407 ft | 10 kts | 33° |
| 2026-05-09 10:22 | 37.43738 | 25.34723 | 409 ft | 11 kts | 341° |
| 2026-05-09 10:22 | 37.43828 | 25.34683 | 407 ft | 16 kts | 340° |
| 2026-05-09 10:22 | 37.43933 | 25.34636 | 411 ft | 16 kts | 341° |
| 2026-05-09 10:23 | 37.44035 | 25.34591 | 409 ft | 16 kts | 340° |
| 2026-05-09 10:23 | 37.44138 | 25.34545 | 406 ft | 15 kts | 340° |
| 2026-05-09 10:23 | 37.44235 | 25.34499 | 406 ft | 15 kts | 330° |
| 2026-05-09 10:23 | 37.44299 | 25.34470 | 404 ft | 6 kts | 94° |
| 2026-05-09 10:24 | 37.44279 | 25.34484 | 405 ft | 0 kts | 161° |
| 2026-05-09 10:25 | 37.44269 | 25.34488 | 403 ft | 15 kts | 161° |
| 2026-05-09 10:25 | 37.43901 | 25.34651 | 412 ft | 92 kts | 160° |
| 2026-05-09 10:26 | 37.43094 | 25.35009 | 439 ft | 148 kts | 160° |
| 2026-05-09 10:26 | 37.42094 | 25.35432 | 1098 ft | 152 kts | 161° |
| 2026-05-09 10:26 | 37.41077 | 25.35874 | 1823 ft | 162 kts | 161° |
| 2026-05-09 10:26 | 37.39961 | 25.36369 | 2242 ft | 181 kts | 162° |
| 2026-05-09 10:27 | 37.38708 | 25.36923 | 2627 ft | 198 kts | 162° |
| 2026-05-09 10:27 | 37.37404 | 25.37504 | 3221 ft | 203 kts | 163° |
| 2026-05-09 10:27 | 37.36064 | 25.38103 | 3815 ft | 207 kts | 164° |
| 2026-05-09 10:27 | 37.34664 | 25.38375 | 4400 ft | 203 kts | 195° |
| 2026-05-09 10:28 | 37.33468 | 25.37479 | 4848 ft | 211 kts | 233° |
| 2026-05-09 10:28 | 37.32702 | 25.35832 | 5435 ft | 221 kts | 242° |
| 2026-05-09 10:28 | 37.31990 | 25.34116 | 6361 ft | 219 kts | 242° |
| 2026-05-09 10:28 | 37.31296 | 25.32436 | 7203 ft | 220 kts | 242° |
| 2026-05-09 10:29 | 37.30581 | 25.30716 | 7968 ft | 224 kts | 243° |
| 2026-05-09 10:29 | 37.29851 | 25.28970 | 8762 ft | 227 kts | 243° |
| 2026-05-09 10:29 | 37.29107 | 25.27206 | 9571 ft | 230 kts | 243° |
| 2026-05-09 10:29 | 37.28346 | 25.25405 | 10351 ft | 234 kts | 243° |
| 2026-05-09 10:30 | 37.27605 | 25.23578 | 11102 ft | 236 kts | 250° |
| 2026-05-09 10:30 | 37.27314 | 25.21558 | 11833 ft | 238 kts | 271° |
| 2026-05-09 10:30 | 37.27682 | 25.19476 | 12281 ft | 259 kts | 292° |
| 2026-05-09 10:30 | 37.28681 | 25.17490 | 12508 ft | 284 kts | 301° |
| 2026-05-09 10:31 | 37.29852 | 25.15359 | 12715 ft | 308 kts | 301° |
| 2026-05-09 10:31 | 37.31111 | 25.13069 | 13047 ft | 325 kts | 301° |
| 2026-05-09 10:31 | 37.32417 | 25.10701 | 13696 ft | 330 kts | 301° |
| 2026-05-09 10:31 | 37.33731 | 25.08312 | 14364 ft | 333 kts | 301° |
| 2026-05-09 10:32 | 37.35032 | 25.05931 | 15025 ft | 336 kts | 301° |
| 2026-05-09 10:32 | 37.36291 | 25.03455 | 15678 ft | 336 kts | 294° |
| 2026-05-09 10:32 | 37.37133 | 25.00713 | 16355 ft | 336 kts | 286° |
| 2026-05-09 10:32 | 37.37872 | 24.97915 | 17041 ft | 337 kts | 286° |
| 2026-05-09 10:33 | 37.38615 | 24.95105 | 17702 ft | 340 kts | 286° |
| 2026-05-09 10:33 | 37.39367 | 24.92272 | 18346 ft | 342 kts | 286° |
| 2026-05-09 10:33 | 37.40106 | 24.89484 | 18890 ft | 344 kts | 286° |
| 2026-05-09 10:33 | 37.40863 | 24.86618 | 19451 ft | 347 kts | 286° |
| 2026-05-09 10:34 | 37.41624 | 24.83729 | 20010 ft | 349 kts | 286° |
| 2026-05-09 10:34 | 37.43166 | 24.77890 | 21071 ft | 353 kts | 286° |
| 2026-05-09 10:34 | 37.43943 | 24.74946 | 21584 ft | 356 kts | 286° |
| 2026-05-09 10:35 | 37.44725 | 24.71981 | 22099 ft | 358 kts | 286° |
| 2026-05-09 10:35 | 37.45510 | 24.68999 | 22608 ft | 360 kts | 286° |
| 2026-05-09 10:35 | 37.46300 | 24.65994 | 23102 ft | 363 kts | 286° |
| 2026-05-09 10:35 | 37.47092 | 24.62967 | 23581 ft | 365 kts | 286° |
| 2026-05-09 10:36 | 37.47889 | 24.59925 | 23999 ft | 367 kts | 286° |
| 2026-05-09 10:36 | 37.48692 | 24.56862 | 24443 ft | 368 kts | 286° |
| 2026-05-09 10:36 | 37.49496 | 24.53801 | 24895 ft | 368 kts | 286° |
| 2026-05-09 10:36 | 37.50295 | 24.50738 | 25343 ft | 368 kts | 286° |
| 2026-05-09 10:37 | 37.51092 | 24.47675 | 25797 ft | 368 kts | 286° |
| 2026-05-09 10:37 | 37.51891 | 24.44603 | 26228 ft | 369 kts | 286° |
| 2026-05-09 10:37 | 37.52690 | 24.41535 | 26657 ft | 369 kts | 286° |
| 2026-05-09 10:37 | 37.53489 | 24.38461 | 27087 ft | 369 kts | 286° |
| 2026-05-09 10:38 | 37.54284 | 24.35388 | 27571 ft | 368 kts | 286° |
| 2026-05-09 10:38 | 37.55080 | 24.32321 | 28020 ft | 368 kts | 286° |
| 2026-05-09 10:38 | 37.55878 | 24.29248 | 28417 ft | 369 kts | 286° |
| 2026-05-09 10:38 | 37.56703 | 24.26183 | 28855 ft | 369 kts | 287° |
| 2026-05-09 10:39 | 37.57561 | 24.23122 | 29255 ft | 370 kts | 287° |
| 2026-05-09 10:39 | 37.58435 | 24.20072 | 29638 ft | 371 kts | 288° |
| 2026-05-09 10:39 | 37.59315 | 24.17011 | 30010 ft | 371 kts | 288° |
| 2026-05-09 10:39 | 37.60188 | 24.13946 | 30329 ft | 372 kts | 288° |
| 2026-05-09 10:40 | 37.61056 | 24.10872 | 30612 ft | 373 kts | 288° |
| 2026-05-09 10:40 | 37.61921 | 24.07785 | 30890 ft | 374 kts | 288° |
| 2026-05-09 10:40 | 37.62781 | 24.04693 | 31196 ft | 374 kts | 288° |
| 2026-05-09 10:40 | 37.63639 | 24.01600 | 31565 ft | 372 kts | 288° |
| 2026-05-09 10:41 | 37.64489 | 23.98525 | 31970 ft | 370 kts | 288° |
| 2026-05-09 10:41 | 37.65332 | 23.95473 | 32362 ft | 368 kts | 288° |
| 2026-05-09 10:41 | 37.66174 | 23.92432 | 32762 ft | 366 kts | 288° |
| 2026-05-09 10:41 | 37.67010 | 23.89409 | 33152 ft | 364 kts | 288° |
| 2026-05-09 10:42 | 37.67842 | 23.86407 | 33541 ft | 362 kts | 289° |
| 2026-05-09 10:42 | 37.68671 | 23.83417 | 33929 ft | 360 kts | 289° |
| 2026-05-09 10:42 | 37.69494 | 23.80441 | 34266 ft | 358 kts | 289° |
| 2026-05-09 10:42 | 37.70314 | 23.77469 | 34563 ft | 358 kts | 289° |
| 2026-05-09 10:43 | 37.71132 | 23.74499 | 34822 ft | 358 kts | 289° |
| 2026-05-09 10:43 | 37.71942 | 23.71551 | 35071 ft | 358 kts | 289° |
| 2026-05-09 10:43 | 37.72768 | 23.68537 | 35314 ft | 358 kts | 289° |
| 2026-05-09 10:43 | 37.73581 | 23.65570 | 35545 ft | 359 kts | 289° |
| 2026-05-09 10:44 | 37.74399 | 23.62582 | 35769 ft | 359 kts | 289° |
| 2026-05-09 10:44 | 37.75208 | 23.59622 | 35983 ft | 359 kts | 289° |
| 2026-05-09 10:44 | 37.76023 | 23.56645 | 36197 ft | 360 kts | 289° |
| 2026-05-09 10:44 | 37.76841 | 23.53658 | 36403 ft | 360 kts | 288° |
| 2026-05-09 10:45 | 37.77662 | 23.50655 | 36616 ft | 360 kts | 288° |
| 2026-05-09 10:46 | 37.80927 | 23.38656 | 37426 ft | 361 kts | 288° |
| 2026-05-09 10:46 | 37.81750 | 23.35634 | 37626 ft | 361 kts | 288° |
| 2026-05-09 10:46 | 37.82560 | 23.32658 | 37807 ft | 361 kts | 288° |
| 2026-05-09 10:46 | 37.83381 | 23.29635 | 37988 ft | 361 kts | 288° |
| 2026-05-09 10:47 | 37.84183 | 23.26664 | 38029 ft | 362 kts | 288° |
| 2026-05-09 10:47 | 37.85804 | 23.20623 | 38029 ft | 362 kts | 288° |
| 2026-05-09 10:48 | 37.87425 | 23.14605 | 38030 ft | 361 kts | 288° |
| 2026-05-09 10:48 | 37.89051 | 23.08554 | 38019 ft | 361 kts | 288° |
| 2026-05-09 10:49 | 37.90648 | 23.02566 | 38027 ft | 360 kts | 288° |
| 2026-05-09 10:49 | 37.92270 | 22.96571 | 38033 ft | 360 kts | 292° |
| 2026-05-09 10:50 | 37.95045 | 22.91283 | 38096 ft | 367 kts | 311° |
| 2026-05-09 10:50 | 37.98833 | 22.86875 | 38039 ft | 369 kts | 312° |
| 2026-05-09 10:51 | 38.02621 | 22.82481 | 38033 ft | 370 kts | 312° |
| 2026-05-09 10:51 | 38.06417 | 22.78063 | 38008 ft | 371 kts | 312° |
| 2026-05-09 10:52 | 38.10204 | 22.73643 | 38009 ft | 371 kts | 312° |
| 2026-05-09 10:52 | 38.14006 | 22.69206 | 38024 ft | 371 kts | 312° |
| 2026-05-09 10:53 | 38.17843 | 22.64753 | 38030 ft | 372 kts | 312° |
| 2026-05-09 10:53 | 38.21653 | 22.60328 | 38036 ft | 372 kts | 312° |
| 2026-05-09 10:54 | 38.25462 | 22.55886 | 38062 ft | 374 kts | 312° |
| 2026-05-09 10:54 | 38.28680 | 22.52120 | 38054 ft | 375 kts | 312° |
| 2026-05-09 10:55 | 38.32519 | 22.47621 | 38048 ft | 375 kts | 312° |
| 2026-05-09 10:55 | 38.36366 | 22.43117 | 38038 ft | 375 kts | 313° |
| 2026-05-09 10:56 | 38.40210 | 22.38619 | 38050 ft | 375 kts | 312° |
| 2026-05-09 10:56 | 38.44036 | 22.34129 | 38040 ft | 374 kts | 312° |
| 2026-05-09 10:57 | 38.47847 | 22.29650 | 38047 ft | 373 kts | 312° |
| 2026-05-09 10:57 | 38.51688 | 22.25116 | 38050 ft | 374 kts | 312° |
| 2026-05-09 10:58 | 38.55485 | 22.20632 | 38048 ft | 374 kts | 312° |
| 2026-05-09 10:58 | 38.59389 | 22.16176 | 38026 ft | 372 kts | 315° |
| 2026-05-09 10:59 | 38.63413 | 22.12056 | 38043 ft | 375 kts | 317° |
| 2026-05-09 10:59 | 38.67539 | 22.07913 | 38052 ft | 376 kts | 316° |
| 2026-05-09 11:00 | 38.71615 | 22.03739 | 38061 ft | 375 kts | 316° |
| 2026-05-09 11:00 | 38.75664 | 21.99536 | 38066 ft | 375 kts | 316° |
| 2026-05-09 11:01 | 38.79697 | 21.95332 | 38097 ft | 375 kts | 316° |
| 2026-05-09 11:01 | 38.83743 | 21.91122 | 38057 ft | 374 kts | 316° |
| 2026-05-09 11:02 | 38.87797 | 21.86900 | 38052 ft | 375 kts | 316° |
| 2026-05-09 11:02 | 38.91871 | 21.82650 | 38050 ft | 375 kts | 316° |
| 2026-05-09 11:03 | 38.95924 | 21.78407 | 38014 ft | 376 kts | 316° |
| 2026-05-09 11:03 | 38.99957 | 21.74180 | 38031 ft | 375 kts | 316° |
| 2026-05-09 11:04 | 39.04017 | 21.69934 | 38044 ft | 375 kts | 316° |
| 2026-05-09 11:04 | 39.08041 | 21.65713 | 38063 ft | 375 kts | 316° |
| 2026-05-09 11:05 | 39.12089 | 21.61448 | 38043 ft | 377 kts | 316° |
| 2026-05-09 11:05 | 39.16168 | 21.57151 | 38051 ft | 377 kts | 316° |
| 2026-05-09 11:06 | 39.20221 | 21.52890 | 38050 ft | 377 kts | 316° |
| 2026-05-09 11:06 | 39.24283 | 21.48612 | 38052 ft | 378 kts | 316° |
| 2026-05-09 11:07 | 39.28366 | 21.44293 | 38062 ft | 378 kts | 316° |
| 2026-05-09 11:07 | 39.32415 | 21.39991 | 38072 ft | 378 kts | 316° |
| 2026-05-09 11:08 | 39.36472 | 21.35679 | 38089 ft | 378 kts | 316° |
| 2026-05-09 11:08 | 39.40541 | 21.31357 | 38085 ft | 379 kts | 316° |
| 2026-05-09 11:09 | 39.44637 | 21.27006 | 38095 ft | 379 kts | 316° |
| 2026-05-09 11:09 | 39.48696 | 21.22685 | 38092 ft | 379 kts | 316° |
| 2026-05-09 11:10 | 39.52749 | 21.18352 | 38090 ft | 379 kts | 316° |
| 2026-05-09 11:10 | 39.56822 | 21.13983 | 38088 ft | 379 kts | 316° |
| 2026-05-09 11:11 | 39.60865 | 21.09659 | 38119 ft | 379 kts | 316° |
| 2026-05-09 11:11 | 39.64953 | 21.05282 | 38106 ft | 379 kts | 316° |
| 2026-05-09 11:12 | 39.69013 | 21.00910 | 38104 ft | 379 kts | 316° |
| 2026-05-09 11:12 | 39.73050 | 20.96557 | 38098 ft | 379 kts | 316° |
| 2026-05-09 11:13 | 39.77109 | 20.92184 | 38094 ft | 379 kts | 316° |
| 2026-05-09 11:13 | 39.81188 | 20.87789 | 38098 ft | 379 kts | 316° |
| 2026-05-09 11:14 | 39.85255 | 20.83402 | 38094 ft | 379 kts | 316° |
| 2026-05-09 11:14 | 39.89308 | 20.79004 | 38100 ft | 380 kts | 316° |
| 2026-05-09 11:15 | 39.93337 | 20.74614 | 38094 ft | 380 kts | 316° |
| 2026-05-09 11:15 | 39.97398 | 20.70203 | 38087 ft | 380 kts | 316° |
| 2026-05-09 11:16 | 40.01471 | 20.65783 | 38081 ft | 380 kts | 316° |
| 2026-05-09 11:16 | 40.05528 | 20.61363 | 38080 ft | 380 kts | 316° |
| 2026-05-09 11:17 | 40.09890 | 20.57409 | 38077 ft | 384 kts | 324° |
| 2026-05-09 11:17 | 40.14501 | 20.53824 | 38084 ft | 385 kts | 324° |
| 2026-05-09 11:18 | 40.19124 | 20.50232 | 38068 ft | 386 kts | 324° |
| 2026-05-09 11:18 | 40.23744 | 20.46635 | 38070 ft | 387 kts | 324° |
| 2026-05-09 11:19 | 40.28345 | 20.43045 | 38081 ft | 386 kts | 324° |
| 2026-05-09 11:19 | 40.32941 | 20.39454 | 38084 ft | 385 kts | 324° |
| 2026-05-09 11:20 | 40.37560 | 20.35842 | 38098 ft | 385 kts | 324° |
| 2026-05-09 11:20 | 40.42161 | 20.32233 | 38078 ft | 386 kts | 324° |
| 2026-05-09 11:21 | 40.46797 | 20.28579 | 38072 ft | 387 kts | 324° |
| 2026-05-09 11:21 | 40.51420 | 20.24944 | 38073 ft | 388 kts | 324° |
| 2026-05-09 11:22 | 40.56022 | 20.21318 | 38080 ft | 388 kts | 324° |
| 2026-05-09 11:22 | 40.60643 | 20.17660 | 38110 ft | 387 kts | 324° |
| 2026-05-09 11:23 | 40.65273 | 20.13992 | 38085 ft | 389 kts | 324° |
| 2026-05-09 11:23 | 40.69922 | 20.10309 | 38080 ft | 389 kts | 324° |
| 2026-05-09 11:24 | 40.74553 | 20.06640 | 38076 ft | 388 kts | 324° |
| 2026-05-09 11:24 | 40.79205 | 20.02938 | 38087 ft | 388 kts | 324° |
| 2026-05-09 11:25 | 40.83805 | 19.99268 | 38085 ft | 388 kts | 324° |
| 2026-05-09 11:25 | 40.88456 | 19.95557 | 38087 ft | 389 kts | 324° |
| 2026-05-09 11:26 | 40.93087 | 19.91855 | 38073 ft | 390 kts | 324° |
| 2026-05-09 11:26 | 40.97726 | 19.88143 | 38076 ft | 391 kts | 324° |
| 2026-05-09 11:27 | 41.02423 | 19.84374 | 38082 ft | 392 kts | 324° |
| 2026-05-09 11:27 | 41.07081 | 19.80627 | 38080 ft | 392 kts | 324° |
| 2026-05-09 11:28 | 41.11745 | 19.76879 | 38086 ft | 392 kts | 324° |
| 2026-05-09 11:28 | 41.16380 | 19.73146 | 38095 ft | 391 kts | 324° |
| 2026-05-09 11:29 | 41.21005 | 19.69411 | 38096 ft | 390 kts | 324° |
| 2026-05-09 11:29 | 41.25646 | 19.65659 | 38092 ft | 390 kts | 324° |
| 2026-05-09 11:30 | 41.30293 | 19.61895 | 38090 ft | 389 kts | 324° |
| 2026-05-09 11:30 | 41.34892 | 19.58167 | 38100 ft | 389 kts | 324° |
| 2026-05-09 11:31 | 41.39530 | 19.54400 | 38085 ft | 390 kts | 324° |
| 2026-05-09 11:31 | 41.44169 | 19.50622 | 38085 ft | 391 kts | 324° |
| 2026-05-09 11:32 | 41.48832 | 19.46817 | 38085 ft | 392 kts | 324° |
| 2026-05-09 11:32 | 41.53475 | 19.43025 | 38088 ft | 391 kts | 324° |
| 2026-05-09 11:33 | 41.58093 | 19.39253 | 38109 ft | 392 kts | 324° |
| 2026-05-09 11:33 | 41.65094 | 19.33511 | 38099 ft | 393 kts | 323° |
| 2026-05-09 11:34 | 41.69723 | 19.29703 | 38098 ft | 393 kts | 324° |
| 2026-05-09 11:34 | 41.74405 | 19.25853 | 38098 ft | 393 kts | 323° |
| 2026-05-09 11:35 | 41.79042 | 19.22021 | 38101 ft | 393 kts | 323° |
| 2026-05-09 11:35 | 41.83699 | 19.18175 | 38094 ft | 394 kts | 324° |
| 2026-05-09 11:36 | 41.87599 | 19.14949 | 38087 ft | 394 kts | 324° |
| 2026-05-09 11:36 | 41.92250 | 19.11092 | 38079 ft | 394 kts | 323° |
| 2026-05-09 11:37 | 41.96923 | 19.07216 | 38103 ft | 394 kts | 323° |
| 2026-05-09 11:37 | 42.01561 | 19.03361 | 38104 ft | 393 kts | 323° |
| 2026-05-09 11:38 | 42.06224 | 18.99480 | 38102 ft | 394 kts | 323° |
| 2026-05-09 11:38 | 42.10876 | 18.95597 | 38089 ft | 394 kts | 323° |
| 2026-05-09 11:39 | 42.15538 | 18.91695 | 38094 ft | 395 kts | 323° |
| 2026-05-09 11:40 | 42.22557 | 18.85823 | 38083 ft | 395 kts | 323° |
| 2026-05-09 11:40 | 42.27234 | 18.81906 | 38095 ft | 395 kts | 323° |
| 2026-05-09 11:41 | 42.31887 | 18.77990 | 38080 ft | 395 kts | 323° |
| 2026-05-09 11:41 | 42.36536 | 18.74064 | 38090 ft | 395 kts | 323° |
| 2026-05-09 11:42 | 42.41194 | 18.70124 | 38088 ft | 395 kts | 323° |
| 2026-05-09 11:42 | 42.45864 | 18.66180 | 38085 ft | 395 kts | 323° |
| 2026-05-09 11:43 | 42.50541 | 18.62222 | 38106 ft | 395 kts | 323° |
| 2026-05-09 11:43 | 42.55176 | 18.58283 | 38086 ft | 396 kts | 323° |
| 2026-05-09 11:44 | 42.59842 | 18.54314 | 38094 ft | 397 kts | 323° |
| 2026-05-09 11:44 | 42.64536 | 18.50330 | 38099 ft | 397 kts | 323° |
| 2026-05-09 11:45 | 42.69210 | 18.46341 | 38095 ft | 397 kts | 323° |
| 2026-05-09 11:45 | 42.73896 | 18.42325 | 38111 ft | 398 kts | 323° |
| 2026-05-09 11:46 | 42.78577 | 18.38317 | 38098 ft | 398 kts | 323° |
| 2026-05-09 11:46 | 42.83288 | 18.34291 | 38089 ft | 398 kts | 323° |
| 2026-05-09 11:47 | 42.87962 | 18.30271 | 38079 ft | 398 kts | 323° |
| 2026-05-09 11:47 | 42.92639 | 18.26236 | 38073 ft | 398 kts | 323° |
| 2026-05-09 11:48 | 42.97307 | 18.22207 | 38081 ft | 399 kts | 323° |
| 2026-05-09 11:48 | 43.02003 | 18.18143 | 38078 ft | 399 kts | 323° |
| 2026-05-09 11:49 | 43.06691 | 18.14088 | 38064 ft | 399 kts | 323° |
| 2026-05-09 11:49 | 43.11398 | 18.10019 | 38055 ft | 399 kts | 323° |
| 2026-05-09 11:50 | 43.16074 | 18.05964 | 38049 ft | 399 kts | 323° |
| 2026-05-09 11:50 | 43.20781 | 18.01860 | 38037 ft | 400 kts | 323° |
| 2026-05-09 11:51 | 43.25467 | 17.97774 | 38023 ft | 401 kts | 323° |
| 2026-05-09 11:51 | 43.30174 | 17.93657 | 38021 ft | 402 kts | 323° |
| 2026-05-09 11:52 | 43.34909 | 17.89511 | 38020 ft | 402 kts | 323° |
| 2026-05-09 11:52 | 43.39606 | 17.85401 | 38027 ft | 402 kts | 323° |
| 2026-05-09 11:53 | 43.44320 | 17.81256 | 38044 ft | 403 kts | 323° |
| 2026-05-09 11:53 | 43.49060 | 17.77077 | 38079 ft | 402 kts | 323° |
| 2026-05-09 11:54 | 43.53759 | 17.72928 | 38079 ft | 402 kts | 323° |
| 2026-05-09 11:54 | 43.58457 | 17.68772 | 38098 ft | 400 kts | 323° |
| 2026-05-09 11:55 | 43.63140 | 17.64630 | 38111 ft | 400 kts | 322° |
| 2026-05-09 11:56 | 43.77179 | 17.52057 | 38089 ft | 400 kts | 320° |
| 2026-05-09 11:57 | 43.81620 | 17.47481 | 38092 ft | 399 kts | 318° |
| 2026-05-09 11:57 | 43.86018 | 17.42784 | 38112 ft | 399 kts | 318° |
| 2026-05-09 11:58 | 43.90432 | 17.38128 | 38103 ft | 400 kts | 319° |
| 2026-05-09 11:58 | 43.94893 | 17.33486 | 38097 ft | 401 kts | 319° |
| 2026-05-09 11:59 | 43.99369 | 17.28830 | 38100 ft | 401 kts | 319° |
| 2026-05-09 11:59 | 44.03807 | 17.24187 | 38107 ft | 402 kts | 318° |
| 2026-05-09 12:00 | 44.08262 | 17.19512 | 38135 ft | 401 kts | 318° |
| 2026-05-09 12:00 | 44.12732 | 17.14819 | 38111 ft | 402 kts | 318° |
| 2026-05-09 12:01 | 44.17214 | 17.10107 | 38099 ft | 403 kts | 319° |
| 2026-05-09 12:01 | 44.21704 | 17.05378 | 38100 ft | 404 kts | 318° |
| 2026-05-09 12:02 | 44.26153 | 17.00668 | 38097 ft | 404 kts | 318° |
| 2026-05-09 12:02 | 44.30631 | 16.95941 | 38130 ft | 403 kts | 318° |
| 2026-05-09 12:03 | 44.35135 | 16.91174 | 38102 ft | 404 kts | 318° |
| 2026-05-09 12:03 | 44.39603 | 16.86420 | 38092 ft | 404 kts | 318° |
| 2026-05-09 12:04 | 44.44050 | 16.81677 | 38088 ft | 404 kts | 318° |
| 2026-05-09 12:04 | 44.48527 | 16.76904 | 38088 ft | 404 kts | 318° |
| 2026-05-09 12:05 | 44.53010 | 16.72111 | 38093 ft | 403 kts | 318° |
| 2026-05-09 12:05 | 44.57466 | 16.67332 | 38085 ft | 404 kts | 318° |
| 2026-05-09 12:06 | 44.61912 | 16.62559 | 38070 ft | 405 kts | 318° |
| 2026-05-09 12:06 | 44.66415 | 16.57718 | 38065 ft | 406 kts | 318° |
| 2026-05-09 12:07 | 44.70895 | 16.52898 | 38067 ft | 407 kts | 318° |
| 2026-05-09 12:07 | 44.75372 | 16.48069 | 38083 ft | 407 kts | 317° |
| 2026-05-09 12:08 | 44.79885 | 16.43200 | 38090 ft | 407 kts | 318° |
| 2026-05-09 12:08 | 44.84376 | 16.38330 | 38078 ft | 408 kts | 318° |
| 2026-05-09 12:09 | 44.88881 | 16.33433 | 38080 ft | 409 kts | 318° |
| 2026-05-09 12:09 | 44.93368 | 16.28547 | 38075 ft | 409 kts | 317° |
| 2026-05-09 12:10 | 45.02377 | 16.18727 | 38108 ft | 410 kts | 318° |
| 2026-05-09 12:11 | 45.06884 | 16.13788 | 38079 ft | 411 kts | 317° |
| 2026-05-09 12:11 | 45.11402 | 16.08817 | 38074 ft | 412 kts | 317° |
| 2026-05-09 12:12 | 45.15968 | 16.03806 | 38075 ft | 413 kts | 317° |
| 2026-05-09 12:12 | 45.20477 | 15.98844 | 38080 ft | 413 kts | 317° |
| 2026-05-09 12:13 | 45.25015 | 15.93830 | 38124 ft | 413 kts | 317° |
| 2026-05-09 12:13 | 45.29542 | 15.88824 | 38096 ft | 413 kts | 317° |
| 2026-05-09 12:14 | 45.34074 | 15.83801 | 38091 ft | 414 kts | 317° |
| 2026-05-09 12:14 | 45.38619 | 15.78747 | 38095 ft | 414 kts | 317° |
| 2026-05-09 12:15 | 45.43170 | 15.73675 | 38092 ft | 415 kts | 317° |
| 2026-05-09 12:15 | 45.47689 | 15.68638 | 38106 ft | 414 kts | 317° |
| 2026-05-09 12:16 | 45.52220 | 15.63568 | 38115 ft | 415 kts | 317° |
| 2026-05-09 12:16 | 45.56784 | 15.58455 | 38105 ft | 415 kts | 317° |
| 2026-05-09 12:17 | 45.61343 | 15.53345 | 38102 ft | 416 kts | 317° |
| 2026-05-09 12:17 | 45.65863 | 15.48262 | 38098 ft | 416 kts | 317° |
| 2026-05-09 12:18 | 45.70417 | 15.43122 | 38095 ft | 416 kts | 317° |
| 2026-05-09 12:18 | 45.74938 | 15.38011 | 38096 ft | 416 kts | 317° |
| 2026-05-09 12:19 | 45.78730 | 15.33726 | 38101 ft | 416 kts | 317° |
| 2026-05-09 12:19 | 45.83343 | 15.28643 | 38100 ft | 417 kts | 318° |
| 2026-05-09 12:20 | 45.87957 | 15.23602 | 38095 ft | 417 kts | 318° |
| 2026-05-09 12:20 | 45.92537 | 15.18555 | 38096 ft | 417 kts | 318° |
| 2026-05-09 12:21 | 45.97111 | 15.13480 | 38122 ft | 417 kts | 317° |
| 2026-05-09 12:21 | 46.01718 | 15.08358 | 38106 ft | 417 kts | 318° |
| 2026-05-09 12:22 | 46.06325 | 15.03239 | 38098 ft | 417 kts | 317° |
| 2026-05-09 12:22 | 46.10916 | 14.98123 | 38097 ft | 418 kts | 317° |
| 2026-05-09 12:23 | 46.15502 | 14.93000 | 38094 ft | 418 kts | 317° |
| 2026-05-09 12:23 | 46.20064 | 14.87901 | 38091 ft | 417 kts | 317° |
| 2026-05-09 12:24 | 46.24688 | 14.82717 | 38101 ft | 418 kts | 317° |
| 2026-05-09 12:24 | 46.29256 | 14.77572 | 38091 ft | 419 kts | 317° |
| 2026-05-09 12:25 | 46.33795 | 14.72447 | 38089 ft | 419 kts | 317° |
| 2026-05-09 12:25 | 46.38396 | 14.67257 | 38091 ft | 419 kts | 317° |
| 2026-05-09 12:26 | 46.42993 | 14.62055 | 38081 ft | 419 kts | 317° |
| 2026-05-09 12:26 | 46.47591 | 14.56827 | 38086 ft | 419 kts | 317° |
| 2026-05-09 12:27 | 46.52164 | 14.51630 | 38061 ft | 419 kts | 317° |
| 2026-05-09 12:27 | 46.56773 | 14.46389 | 38060 ft | 420 kts | 317° |
| 2026-05-09 12:28 | 46.61387 | 14.41143 | 38055 ft | 420 kts | 317° |
| 2026-05-09 12:28 | 46.65965 | 14.35901 | 38060 ft | 420 kts | 317° |
| 2026-05-09 12:29 | 46.70566 | 14.30615 | 38078 ft | 420 kts | 317° |
| 2026-05-09 12:29 | 46.75142 | 14.25346 | 38068 ft | 421 kts | 317° |
| 2026-05-09 12:30 | 46.79751 | 14.20041 | 38070 ft | 422 kts | 317° |
| 2026-05-09 12:30 | 46.86633 | 14.12089 | 38073 ft | 421 kts | 317° |
| 2026-05-09 12:31 | 46.93536 | 14.04085 | 38079 ft | 421 kts | 317° |
| 2026-05-09 12:32 | 46.98107 | 13.98770 | 38035 ft | 425 kts | 317° |
| 2026-05-09 12:32 | 47.00442 | 13.96048 | 37760 ft | 428 kts | 317° |
| 2026-05-09 12:32 | 47.02768 | 13.93340 | 37488 ft | 426 kts | 317° |
| 2026-05-09 12:32 | 47.05089 | 13.90636 | 37073 ft | 426 kts | 317° |
| 2026-05-09 12:33 | 47.07408 | 13.87928 | 36437 ft | 424 kts | 317° |
| 2026-05-09 12:33 | 47.09707 | 13.85242 | 35942 ft | 420 kts | 317° |
| 2026-05-09 12:33 | 47.11989 | 13.82569 | 35349 ft | 418 kts | 317° |
| 2026-05-09 12:33 | 47.14267 | 13.79893 | 34582 ft | 420 kts | 317° |
| 2026-05-09 12:34 | 47.16563 | 13.77192 | 33688 ft | 425 kts | 317° |
| 2026-05-09 12:34 | 47.18880 | 13.74470 | 32833 ft | 426 kts | 317° |
| 2026-05-09 12:34 | 47.21199 | 13.71743 | 32271 ft | 428 kts | 317° |
| 2026-05-09 12:34 | 47.23526 | 13.69004 | 31695 ft | 428 kts | 317° |
| 2026-05-09 12:35 | 47.25858 | 13.66260 | 31144 ft | 431 kts | 317° |
| 2026-05-09 12:35 | 47.28180 | 13.63521 | 30581 ft | 433 kts | 317° |
| 2026-05-09 12:35 | 47.30539 | 13.60733 | 29971 ft | 432 kts | 317° |
| 2026-05-09 12:35 | 47.32859 | 13.57993 | 29599 ft | 421 kts | 317° |
| 2026-05-09 12:36 | 47.35123 | 13.55321 | 29020 ft | 413 kts | 317° |
| 2026-05-09 12:36 | 47.37366 | 13.52669 | 28319 ft | 410 kts | 317° |
| 2026-05-09 12:36 | 47.39578 | 13.50048 | 27813 ft | 403 kts | 317° |
| 2026-05-09 12:36 | 47.41744 | 13.47469 | 27318 ft | 397 kts | 317° |
| 2026-05-09 12:37 | 47.43855 | 13.44946 | 26845 ft | 391 kts | 316° |
| 2026-05-09 12:37 | 47.45956 | 13.42434 | 26366 ft | 385 kts | 317° |
| 2026-05-09 12:37 | 47.48029 | 13.39957 | 25892 ft | 380 kts | 317° |
| 2026-05-09 12:37 | 47.50079 | 13.37508 | 25416 ft | 375 kts | 317° |
| 2026-05-09 12:38 | 47.52073 | 13.35115 | 24953 ft | 371 kts | 316° |
| 2026-05-09 12:38 | 47.54065 | 13.32706 | 24494 ft | 367 kts | 317° |
| 2026-05-09 12:38 | 47.56029 | 13.30321 | 24032 ft | 363 kts | 317° |
| 2026-05-09 12:38 | 47.57975 | 13.27952 | 23525 ft | 361 kts | 317° |
| 2026-05-09 12:39 | 47.59912 | 13.25595 | 23020 ft | 357 kts | 317° |
| 2026-05-09 12:39 | 47.61823 | 13.23270 | 22555 ft | 353 kts | 317° |
| 2026-05-09 12:39 | 47.63685 | 13.21001 | 22093 ft | 349 kts | 317° |
| 2026-05-09 12:39 | 47.65570 | 13.18708 | 21617 ft | 347 kts | 317° |
| 2026-05-09 12:40 | 47.67430 | 13.16442 | 21151 ft | 345 kts | 317° |
| 2026-05-09 12:40 | 47.69284 | 13.14179 | 20687 ft | 344 kts | 317° |
| 2026-05-09 12:40 | 47.71127 | 13.11924 | 20210 ft | 342 kts | 317° |
| 2026-05-09 12:40 | 47.72941 | 13.09703 | 19746 ft | 341 kts | 318° |
| 2026-05-09 12:41 | 47.74779 | 13.07456 | 19281 ft | 340 kts | 318° |
| 2026-05-09 12:41 | 47.76607 | 13.05226 | 18824 ft | 339 kts | 318° |
| 2026-05-09 12:41 | 47.78431 | 13.02998 | 18360 ft | 338 kts | 318° |
| 2026-05-09 12:41 | 47.80245 | 13.00775 | 17867 ft | 336 kts | 318° |
| 2026-05-09 12:42 | 47.82042 | 12.98561 | 17407 ft | 334 kts | 318° |
| 2026-05-09 12:42 | 47.83803 | 12.96389 | 16967 ft | 332 kts | 318° |
| 2026-05-09 12:42 | 47.85575 | 12.94204 | 16535 ft | 329 kts | 318° |
| 2026-05-09 12:42 | 47.87337 | 12.92029 | 16117 ft | 328 kts | 318° |
| 2026-05-09 12:43 | 47.89093 | 12.89860 | 15691 ft | 327 kts | 319° |
| 2026-05-09 12:43 | 47.90844 | 12.87696 | 15257 ft | 326 kts | 319° |
| 2026-05-09 12:43 | 47.92591 | 12.85534 | 14833 ft | 325 kts | 319° |
| 2026-05-09 12:43 | 47.94334 | 12.83382 | 14411 ft | 325 kts | 318° |
| 2026-05-09 12:44 | 47.95870 | 12.80950 | 14136 ft | 321 kts | 305° |
| 2026-05-09 12:44 | 47.97046 | 12.78156 | 14087 ft | 321 kts | 299° |
| 2026-05-09 12:44 | 47.98187 | 12.75269 | 14097 ft | 322 kts | 300° |
| 2026-05-09 12:44 | 47.99340 | 12.72390 | 14101 ft | 323 kts | 300° |
| 2026-05-09 12:45 | 48.00494 | 12.69510 | 14102 ft | 323 kts | 300° |
| 2026-05-09 12:45 | 48.01646 | 12.66636 | 14100 ft | 322 kts | 300° |
| 2026-05-09 12:45 | 48.02803 | 12.63758 | 14101 ft | 322 kts | 300° |
| 2026-05-09 12:45 | 48.03945 | 12.60921 | 14099 ft | 322 kts | 300° |
| 2026-05-09 12:46 | 48.05095 | 12.58055 | 14101 ft | 320 kts | 300° |
| 2026-05-09 12:46 | 48.06226 | 12.55249 | 13970 ft | 310 kts | 300° |
| 2026-05-09 12:46 | 48.07339 | 12.52497 | 13680 ft | 306 kts | 300° |
| 2026-05-09 12:46 | 48.08426 | 12.49803 | 13489 ft | 299 kts | 300° |
| 2026-05-09 12:47 | 48.09490 | 12.47168 | 13316 ft | 293 kts | 300° |
| 2026-05-09 12:47 | 48.10538 | 12.44571 | 13109 ft | 291 kts | 300° |
| 2026-05-09 12:47 | 48.11584 | 12.41981 | 12927 ft | 290 kts | 300° |
| 2026-05-09 12:47 | 48.12627 | 12.39392 | 12688 ft | 290 kts | 300° |
| 2026-05-09 12:48 | 48.13670 | 12.36802 | 12420 ft | 290 kts | 300° |
| 2026-05-09 12:48 | 48.14699 | 12.34244 | 12165 ft | 289 kts | 300° |
| 2026-05-09 12:48 | 48.15736 | 12.31664 | 11909 ft | 289 kts | 300° |
| 2026-05-09 12:48 | 48.16682 | 12.29014 | 11653 ft | 288 kts | 295° |
| 2026-05-09 12:49 | 48.17554 | 12.26327 | 11392 ft | 286 kts | 294° |
| 2026-05-09 12:49 | 48.18399 | 12.23629 | 11181 ft | 284 kts | 294° |
| 2026-05-09 12:49 | 48.19232 | 12.20937 | 11079 ft | 284 kts | 294° |
| 2026-05-09 12:49 | 48.20066 | 12.18233 | 11093 ft | 286 kts | 294° |
| 2026-05-09 12:50 | 48.20904 | 12.15524 | 11102 ft | 286 kts | 294° |
| 2026-05-09 12:50 | 48.21733 | 12.12851 | 11100 ft | 286 kts | 294° |
| 2026-05-09 12:50 | 48.22582 | 12.10130 | 11102 ft | 286 kts | 294° |
| 2026-05-09 12:50 | 48.23426 | 12.07427 | 11106 ft | 286 kts | 294° |
| 2026-05-09 12:51 | 48.24270 | 12.04727 | 11101 ft | 286 kts | 294° |
| 2026-05-09 12:51 | 48.25114 | 12.02027 | 11047 ft | 286 kts | 294° |
| 2026-05-09 12:51 | 48.25946 | 11.99348 | 10797 ft | 284 kts | 292° |
| 2026-05-09 12:51 | 48.26537 | 11.96524 | 10549 ft | 282 kts | 280° |
| 2026-05-09 12:52 | 48.26730 | 11.93608 | 10308 ft | 280 kts | 269° |
| 2026-05-09 12:52 | 48.26566 | 11.90694 | 10067 ft | 279 kts | 263° |
| 2026-05-09 12:52 | 48.26342 | 11.87804 | 9811 ft | 278 kts | 263° |
| 2026-05-09 12:52 | 48.26123 | 11.84949 | 9546 ft | 278 kts | 263° |
| 2026-05-09 12:53 | 48.25903 | 11.82068 | 9280 ft | 277 kts | 263° |
| 2026-05-09 12:53 | 48.25682 | 11.79192 | 9019 ft | 277 kts | 263° |
| 2026-05-09 12:53 | 48.25459 | 11.76321 | 8757 ft | 277 kts | 263° |
| 2026-05-09 12:53 | 48.25238 | 11.73486 | 8499 ft | 270 kts | 263° |
| 2026-05-09 12:54 | 48.25025 | 11.70709 | 8246 ft | 265 kts | 263° |
| 2026-05-09 12:54 | 48.24814 | 11.67980 | 7989 ft | 259 kts | 263° |
| 2026-05-09 12:54 | 48.24606 | 11.65326 | 7742 ft | 254 kts | 263° |
| 2026-05-09 12:54 | 48.24402 | 11.62739 | 7489 ft | 249 kts | 263° |
| 2026-05-09 12:55 | 48.24202 | 11.60174 | 7242 ft | 246 kts | 262° |
| 2026-05-09 12:55 | 48.24003 | 11.57635 | 6996 ft | 244 kts | 263° |
| 2026-05-09 12:55 | 48.23803 | 11.55105 | 6750 ft | 244 kts | 262° |
| 2026-05-09 12:55 | 48.23602 | 11.52572 | 6498 ft | 244 kts | 262° |
| 2026-05-09 12:56 | 48.23401 | 11.50046 | 6228 ft | 244 kts | 262° |
| 2026-05-09 12:56 | 48.23200 | 11.47541 | 5967 ft | 244 kts | 263° |
| 2026-05-09 12:56 | 48.22999 | 11.45014 | 5720 ft | 243 kts | 262° |
| 2026-05-09 12:56 | 48.22797 | 11.42509 | 5477 ft | 240 kts | 263° |
| 2026-05-09 12:57 | 48.22601 | 11.40049 | 5298 ft | 234 kts | 263° |
| 2026-05-09 12:57 | 48.22410 | 11.37661 | 5123 ft | 227 kts | 263° |
| 2026-05-09 12:57 | 48.22223 | 11.35333 | 4894 ft | 227 kts | 263° |
| 2026-05-09 12:57 | 48.22034 | 11.32988 | 4641 ft | 227 kts | 262° |
| 2026-05-09 12:58 | 48.21840 | 11.30619 | 4379 ft | 228 kts | 263° |
| 2026-05-09 12:58 | 48.21643 | 11.28250 | 4121 ft | 230 kts | 263° |
| 2026-05-09 12:58 | 48.21740 | 11.25907 | 3986 ft | 225 kts | 292° |
| 2026-05-09 12:58 | 48.22643 | 11.24098 | 3988 ft | 218 kts | 328° |
| 2026-05-09 12:59 | 48.24051 | 11.23403 | 3985 ft | 214 kts | 4° |
| 2026-05-09 12:59 | 48.25432 | 11.24047 | 3975 ft | 209 kts | 38° |
| 2026-05-09 12:59 | 48.26440 | 11.25597 | 3979 ft | 207 kts | 52° |
| 2026-05-09 12:59 | 48.27346 | 11.27306 | 3974 ft | 210 kts | 53° |
| 2026-05-09 13:00 | 48.28240 | 11.29037 | 3974 ft | 210 kts | 53° |
| 2026-05-09 13:00 | 48.29121 | 11.30801 | 3982 ft | 212 kts | 54° |
| 2026-05-09 13:00 | 48.29997 | 11.32566 | 3984 ft | 209 kts | 53° |
| 2026-05-09 13:00 | 48.30755 | 11.34402 | 3979 ft | 211 kts | 72° |
| 2026-05-09 13:01 | 48.31008 | 11.36572 | 3993 ft | 205 kts | 84° |
| 2026-05-09 13:01 | 48.31171 | 11.38634 | 3986 ft | 196 kts | 84° |
| 2026-05-09 13:01 | 48.31332 | 11.40618 | 4000 ft | 184 kts | 83° |
| 2026-05-09 13:01 | 48.31484 | 11.42498 | 3998 ft | 176 kts | 83° |
| 2026-05-09 13:02 | 48.31582 | 11.43719 | 4003 ft | 178 kts | 84° |
| 2026-05-09 13:02 | 48.31729 | 11.45549 | 4000 ft | 174 kts | 83° |
| 2026-05-09 13:02 | 48.31874 | 11.47356 | 4003 ft | 173 kts | 83° |
| 2026-05-09 13:02 | 48.32019 | 11.49166 | 3988 ft | 174 kts | 84° |
| 2026-05-09 13:03 | 48.32163 | 11.50969 | 3997 ft | 172 kts | 83° |
| 2026-05-09 13:03 | 48.32306 | 11.52758 | 3999 ft | 170 kts | 84° |
| 2026-05-09 13:03 | 48.32442 | 11.54463 | 4005 ft | 163 kts | 85° |
| 2026-05-09 13:03 | 48.32573 | 11.56100 | 3925 ft | 155 kts | 84° |
| 2026-05-09 13:04 | 48.32700 | 11.57714 | 3775 ft | 154 kts | 83° |
| 2026-05-09 13:04 | 48.32825 | 11.59287 | 3590 ft | 151 kts | 84° |
| 2026-05-09 13:04 | 48.32947 | 11.60842 | 3399 ft | 148 kts | 84° |
| 2026-05-09 13:04 | 48.33069 | 11.62378 | 3214 ft | 148 kts | 84° |
| 2026-05-09 13:05 | 48.33189 | 11.63903 | 3012 ft | 146 kts | 84° |
| 2026-05-09 13:05 | 48.33309 | 11.65423 | 2826 ft | 147 kts | 84° |
| 2026-05-09 13:05 | 48.33429 | 11.66954 | 2602 ft | 146 kts | 83° |
| 2026-05-09 13:05 | 48.33548 | 11.68478 | 2426 ft | 145 kts | 83° |
| 2026-05-09 13:06 | 48.33667 | 11.69997 | 2233 ft | 148 kts | 84° |
| 2026-05-09 13:06 | 48.33785 | 11.71516 | 1997 ft | 146 kts | 82° |
| 2026-05-09 13:06 | 48.33900 | 11.73033 | 1808 ft | 147 kts | 82° |
| 2026-05-09 13:06 | 48.34019 | 11.74543 | 1622 ft | 145 kts | 81° |
| 2026-05-09 13:07 | 48.34141 | 11.76024 | 1488 ft | 134 kts | 83° |
| 2026-05-09 13:07 | 48.34229 | 11.77194 | 1485 ft | 88 kts | 83° |
| 2026-05-09 13:07 | 48.34284 | 11.77910 | 1485 ft | 60 kts | 83° |
| 2026-05-09 13:07 | 48.34376 | 11.78349 | 1475 ft | 30 kts | 54° |
| 2026-05-09 13:08 | 48.34471 | 11.78541 | 1478 ft | 14 kts | 53° |
| 2026-05-09 13:08 | 48.34492 | 11.78584 | 1471 ft | 0 kts | 53° |
| 2026-05-09 13:08 | 48.34494 | 11.78588 | 1471 ft | 3 kts | 53° |
| 2026-05-09 13:09 | 48.34536 | 11.78674 | 1479 ft | 16 kts | 54° |
| 2026-05-09 13:09 | 48.34615 | 11.78835 | 1478 ft | 19 kts | 55° |
| 2026-05-09 13:09 | 48.34643 | 11.79040 | 1485 ft | 21 kts | 84° |
| 2026-05-09 13:09 | 48.34660 | 11.79267 | 1485 ft | 23 kts | 83° |
| 2026-05-09 13:10 | 48.34679 | 11.79508 | 1485 ft | 24 kts | 83° |
| 2026-05-09 13:10 | 48.34707 | 11.79705 | 1479 ft | 11 kts | 47° |
| 2026-05-09 13:10 | 48.34775 | 11.79709 | 1485 ft | 11 kts | 353° |
| 2026-05-09 13:10 | 48.34832 | 11.79698 | 1475 ft | 5 kts | 353° |
| 2026-05-09 13:11 | 48.34835 | 11.79697 | 1475 ft | 0 kts | 353° |
| 2026-05-09 13:11 | 48.34862 | 11.79693 | 1483 ft | 8 kts | 353° |
| 2026-05-09 13:11 | 48.34928 | 11.79681 | 1482 ft | 10 kts | 353° |
| 2026-05-09 13:12 | 48.35004 | 11.79668 | 1478 ft | 12 kts | 353° |
| 2026-05-09 13:12 | 48.35073 | 11.79714 | 1482 ft | 12 kts | 73° |
| 2026-05-09 13:12 | 48.35081 | 11.79824 | 1485 ft | 7 kts | 84° |
| 2026-05-09 13:12 | 48.35081 | 11.79832 | 1485 ft | 0 kts | 83° |
| 2026-05-09 13:13 | 48.35082 | 11.79839 | 1485 ft | 3 kts | 84° |
| 2026-05-09 13:13 | 48.35088 | 11.79922 | 1476 ft | 13 kts | 83° |
| 2026-05-09 13:13 | 48.35099 | 11.80071 | 1477 ft | 15 kts | 84° |
| 2026-05-09 13:14 | 48.35117 | 11.80216 | 1475 ft | 11 kts | 53° |
| 2026-05-09 13:14 | 48.35192 | 11.80221 | 1485 ft | 12 kts | 353° |
| 2026-05-09 13:16 | 48.35249 | 11.80307 | 1485 ft | 0 kts | 83° |